createdAt,value
2018-06-27T00:01:59.744Z,948.06
2018-06-27T00:04:26.048Z,948.10
2018-06-27T00:06:52.341Z,948.04
2018-06-27T00:09:18.633Z,947.98
2018-06-27T00:11:44.927Z,947.90
2018-06-27T00:14:11.220Z,947.92
2018-06-27T00:16:37.513Z,947.90
2018-06-27T00:19:03.806Z,947.87
2018-06-27T00:21:30.109Z,947.80
2018-06-27T00:23:56.412Z,947.77
2018-06-27T00:26:22.723Z,947.81
2018-06-27T00:28:49.019Z,947.72
2018-06-27T00:31:15.315Z,947.79
2018-06-27T00:33:41.611Z,947.80
2018-06-27T00:36:07.912Z,947.71
2018-06-27T00:38:34.205Z,947.75
2018-06-27T00:41:00.500Z,947.73
2018-06-27T00:43:26.802Z,947.69
2018-06-27T00:45:53.119Z,947.63
2018-06-27T00:48:19.415Z,947.62
2018-06-27T00:50:45.717Z,947.56
2018-06-27T00:53:12.013Z,947.56
2018-06-27T00:55:38.311Z,947.53
2018-06-27T00:58:04.646Z,947.51
2018-06-27T01:00:30.943Z,947.48
2018-06-27T01:02:57.238Z,947.40
2018-06-27T01:05:23.534Z,947.41
2018-06-27T01:07:49.829Z,947.44
2018-06-27T01:10:16.269Z,947.43
2018-06-27T01:12:42.562Z,947.31
2018-06-27T01:15:08.897Z,947.31
2018-06-27T01:17:35.190Z,947.36
2018-06-27T01:20:01.537Z,947.35
2018-06-27T01:22:27.773Z,947.36
2018-06-27T01:24:54.066Z,947.36
2018-06-27T01:27:20.362Z,947.29
2018-06-27T01:29:46.657Z,947.35
2018-06-27T01:32:13.679Z,947.30
2018-06-27T01:34:39.975Z,947.26
2018-06-27T01:37:06.268Z,947.22
2018-06-27T01:39:32.571Z,947.21
2018-06-27T01:41:58.900Z,947.11
2018-06-27T01:44:25.194Z,947.14
2018-06-27T01:46:51.488Z,947.16
2018-06-27T01:49:17.793Z,947.10
2018-06-27T01:51:44.093Z,947.09
2018-06-27T01:54:10.390Z,947.09
2018-06-27T01:56:36.713Z,947.08
2018-06-27T01:59:03.034Z,947.11
2018-06-27T02:01:29.332Z,947.10
2018-06-27T02:03:55.625Z,947.08
2018-06-27T02:06:21.932Z,947.12
2018-06-27T02:08:48.232Z,947.02
2018-06-27T02:11:14.530Z,947.02
2018-06-27T02:13:40.826Z,947.06
2018-06-27T02:16:07.121Z,947.03
2018-06-27T02:18:33.431Z,947.07
2018-06-27T02:20:59.764Z,947.02
2018-06-27T02:23:26.065Z,946.94
2018-06-27T02:25:52.357Z,946.95
2018-06-27T02:28:18.656Z,947.01
2018-06-27T02:30:44.955Z,946.98
2018-06-27T02:33:11.256Z,947.03
2018-06-27T02:35:37.549Z,947.03
2018-06-27T02:38:03.851Z,947.03
2018-06-27T02:40:30.143Z,947.00
2018-06-27T02:42:56.468Z,946.96
2018-06-27T02:45:22.758Z,946.98
2018-06-27T02:47:49.047Z,946.92
2018-06-27T02:50:15.346Z,946.96
2018-06-27T02:52:41.637Z,946.87
2018-06-27T02:55:07.934Z,946.85
2018-06-27T02:57:34.231Z,946.91
2018-06-27T03:00:00.548Z,946.90
2018-06-27T03:02:26.884Z,946.84
2018-06-27T03:04:53.131Z,946.91
2018-06-27T03:07:19.424Z,946.89
2018-06-27T03:09:45.738Z,946.82
2018-06-27T03:12:12.036Z,946.90
2018-06-27T03:14:38.331Z,946.89
2018-06-27T03:17:04.635Z,946.86
2018-06-27T03:19:30.932Z,946.83
2018-06-27T03:21:57.232Z,946.77
2018-06-27T03:24:23.524Z,946.78
2018-06-27T03:26:49.818Z,946.79
2018-06-27T03:29:16.120Z,946.83
2018-06-27T03:31:42.420Z,946.76
2018-06-27T03:34:08.719Z,946.78
2018-06-27T03:36:35.014Z,946.76
2018-06-27T03:39:01.360Z,946.75
2018-06-27T03:41:27.661Z,946.74
2018-06-27T03:43:53.954Z,946.70
2018-06-27T03:46:20.250Z,946.67
2018-06-27T03:48:46.554Z,946.67
2018-06-27T03:51:12.861Z,946.69
2018-06-27T03:53:39.161Z,946.66
2018-06-27T03:56:05.473Z,946.71
2018-06-27T03:58:31.768Z,946.65
2018-06-27T04:00:58.056Z,946.65
2018-06-27T04:03:24.357Z,946.57
2018-06-27T04:05:50.649Z,946.61
2018-06-27T04:08:16.952Z,946.61
2018-06-27T04:10:43.252Z,946.55
2018-06-27T04:13:09.585Z,946.53
2018-06-27T04:15:35.851Z,946.51
2018-06-27T04:18:02.141Z,946.47
2018-06-27T04:20:28.438Z,946.49
2018-06-27T04:22:54.750Z,946.50
2018-06-27T04:25:21.040Z,946.56
2018-06-27T04:27:47.370Z,946.52
2018-06-27T04:30:13.669Z,946.60
2018-06-27T04:32:39.959Z,946.51
2018-06-27T04:35:06.256Z,946.57
2018-06-27T04:37:32.557Z,946.57
2018-06-27T04:39:58.889Z,946.57
2018-06-27T04:42:25.176Z,946.60
2018-06-27T04:44:51.474Z,946.60
2018-06-27T04:47:17.779Z,946.60
2018-06-27T04:49:44.110Z,946.59
2018-06-27T04:52:10.368Z,946.51
2018-06-27T04:54:36.667Z,946.57
2018-06-27T04:57:02.992Z,946.56
2018-06-27T04:59:29.281Z,946.54
2018-06-27T05:01:55.572Z,946.55
2018-06-27T05:04:21.872Z,946.60
2018-06-27T05:06:48.161Z,946.63
2018-06-27T05:09:14.464Z,946.63
2018-06-27T05:11:40.822Z,946.60
2018-06-27T05:14:07.091Z,946.55
2018-06-27T05:16:33.392Z,946.60
2018-06-27T05:18:59.705Z,946.59
2018-06-27T05:21:26.004Z,946.58
2018-06-27T05:23:52.299Z,946.59
2018-06-27T05:26:18.598Z,946.56
2018-06-27T05:28:44.891Z,946.55
2018-06-27T05:31:11.231Z,946.51
2018-06-27T05:33:37.532Z,946.49
2018-06-27T05:36:03.821Z,946.43
2018-06-27T05:38:30.115Z,946.46
2018-06-27T05:40:56.401Z,946.42
2018-06-27T05:43:22.696Z,946.43
2018-06-27T05:45:48.989Z,946.43
2018-06-27T05:48:15.296Z,946.40
2018-06-27T05:50:41.593Z,946.45
2018-06-27T05:53:07.889Z,946.45
2018-06-27T05:55:34.180Z,946.45
2018-06-27T05:58:00.528Z,946.39
2018-06-27T06:00:26.782Z,946.38
2018-06-27T06:02:53.082Z,946.35
2018-06-27T06:05:19.381Z,946.35
2018-06-27T06:07:45.733Z,946.35
2018-06-27T06:10:12.024Z,946.33
2018-06-27T06:12:38.318Z,946.33
2018-06-27T06:15:04.624Z,946.27
2018-06-27T06:17:30.923Z,946.24
2018-06-27T06:19:57.219Z,946.20
2018-06-27T06:22:23.513Z,946.28
2018-06-27T06:24:49.847Z,946.25
2018-06-27T06:27:16.142Z,946.23
2018-06-27T06:29:42.432Z,946.22
2018-06-27T06:32:08.807Z,946.21
2018-06-27T06:34:35.084Z,946.27
2018-06-27T06:37:01.381Z,946.17
2018-06-27T06:39:27.669Z,946.16
2018-06-27T06:41:54.004Z,946.24
2018-06-27T06:44:20.299Z,946.23
2018-06-27T06:46:46.590Z,946.23
2018-06-27T06:49:12.892Z,946.21
2018-06-27T06:51:39.190Z,946.17
2018-06-27T06:54:05.480Z,946.13
2018-06-27T06:56:31.783Z,946.14
2018-06-27T06:58:58.072Z,946.10
2018-06-27T07:01:24.371Z,946.09
2018-06-27T07:03:50.670Z,946.09
2018-06-27T07:06:16.960Z,946.12
2018-06-27T07:08:43.284Z,946.09
2018-06-27T07:11:09.614Z,946.09
2018-06-27T07:13:35.878Z,946.05
2018-06-27T07:16:02.180Z,946.00
2018-06-27T07:18:28.473Z,946.02
2018-06-27T07:20:54.838Z,945.99
2018-06-27T07:23:21.133Z,946.01
2018-06-27T07:25:47.464Z,946.00
2018-06-27T07:28:13.874Z,946.01
2018-06-27T07:30:40.133Z,945.98
2018-06-27T07:33:06.446Z,945.90
2018-06-27T07:35:32.746Z,945.87
2018-06-27T07:37:59.043Z,945.78
2018-06-27T07:40:25.334Z,945.76
2018-06-27T07:42:51.659Z,945.65
2018-06-27T07:45:17.957Z,945.83
2018-06-27T07:47:44.265Z,945.85
2018-06-27T07:50:10.573Z,945.84
2018-06-27T07:52:36.869Z,945.86
2018-06-27T07:55:03.232Z,945.81
2018-06-27T07:57:29.475Z,945.78
2018-06-27T07:59:55.814Z,945.79
2018-06-27T08:02:22.106Z,945.76
2018-06-27T08:04:48.414Z,945.74
2018-06-27T08:07:14.711Z,945.70
2018-06-27T08:09:41.016Z,945.73
2018-06-27T08:12:07.314Z,945.68
2018-06-27T08:14:34.769Z,945.60
2018-06-27T08:17:01.076Z,945.62
2018-06-27T08:19:27.371Z,945.62
2018-06-27T08:21:53.701Z,945.55
2018-06-27T08:24:20.161Z,945.56
2018-06-27T08:26:46.534Z,945.65
2018-06-27T08:29:12.844Z,945.62
2018-06-27T08:31:39.148Z,945.48
2018-06-27T08:34:05.448Z,945.49
2018-06-27T08:36:31.741Z,945.58
2018-06-27T08:38:58.038Z,945.53
2018-06-27T08:41:24.357Z,945.49
2018-06-27T08:43:50.687Z,945.46
2018-06-27T08:46:17.012Z,945.43
2018-06-27T08:48:43.307Z,945.43
2018-06-27T08:51:09.627Z,945.37
2018-06-27T08:53:35.930Z,945.42
2018-06-27T08:56:02.237Z,945.38
2018-06-27T08:58:28.530Z,945.35
2018-06-27T09:00:54.857Z,945.37
2018-06-27T09:03:21.178Z,945.36
2018-06-27T09:05:47.474Z,945.35
2018-06-27T09:08:13.790Z,945.31
2018-06-27T09:10:40.116Z,945.27
2018-06-27T09:13:08.614Z,945.29
2018-06-27T09:15:33.019Z,945.22
2018-06-27T09:17:59.310Z,945.19
2018-06-27T09:20:25.645Z,945.21
2018-06-27T09:22:52.000Z,945.20
2018-06-27T09:25:18.272Z,945.19
2018-06-27T09:27:44.567Z,945.19
2018-06-27T09:30:10.863Z,945.16
2018-06-27T09:32:37.308Z,945.16
2018-06-27T09:35:03.675Z,945.11
2018-06-27T09:37:29.966Z,945.14
2018-06-27T09:39:56.271Z,945.08
2018-06-27T09:42:22.570Z,945.12
2018-06-27T09:44:48.879Z,945.10
2018-06-27T09:47:15.182Z,945.13
2018-06-27T09:49:41.503Z,945.10
2018-06-27T09:52:07.799Z,945.07
2018-06-27T09:54:34.091Z,945.08
2018-06-27T09:57:00.478Z,945.10
2018-06-27T09:59:26.787Z,945.02
2018-06-27T10:01:53.078Z,945.02
2018-06-27T10:04:19.372Z,945.01
2018-06-27T10:06:45.668Z,945.01
2018-06-27T10:09:11.961Z,944.97
2018-06-27T10:11:38.270Z,945.02
2018-06-27T10:14:04.562Z,945.05
2018-06-27T10:16:30.979Z,945.01
2018-06-27T10:18:57.362Z,945.01
2018-06-27T10:21:23.655Z,944.98
2018-06-27T10:23:49.955Z,944.95
2018-06-27T10:26:16.258Z,944.99
2018-06-27T10:28:42.607Z,944.95
2018-06-27T10:31:08.885Z,944.93
2018-06-27T10:33:35.185Z,944.97
2018-06-27T10:36:01.484Z,944.92
2018-06-27T10:38:27.772Z,944.93
2018-06-27T10:40:54.070Z,944.91
2018-06-27T10:43:20.372Z,944.99
2018-06-27T10:45:46.677Z,944.95
2018-06-27T10:48:13.080Z,944.92
2018-06-27T10:50:39.383Z,944.88
2018-06-27T10:53:05.693Z,944.90
2018-06-27T10:55:31.989Z,944.85
2018-06-27T10:57:58.297Z,944.81
2018-06-27T11:00:24.584Z,944.84
2018-06-27T11:02:50.900Z,944.84
2018-06-27T11:05:17.346Z,944.86
2018-06-27T11:07:43.582Z,944.78
2018-06-27T11:10:09.873Z,944.81
2018-06-27T11:12:36.201Z,944.78
2018-06-27T11:15:02.495Z,944.77
2018-06-27T11:17:28.794Z,944.85
2018-06-27T11:19:55.095Z,944.79
2018-06-27T11:22:21.378Z,944.83
2018-06-27T11:24:47.675Z,944.86
2018-06-27T11:27:13.965Z,944.81
2018-06-27T11:29:40.284Z,944.86
2018-06-27T11:32:06.582Z,944.90
2018-06-27T11:34:32.892Z,944.95
2018-06-27T11:36:59.190Z,944.94
2018-06-27T11:39:25.481Z,944.96
2018-06-27T11:41:52.881Z,945.02
2018-06-27T11:44:19.185Z,945.05
2018-06-27T11:46:45.473Z,945.00
2018-06-27T11:49:11.878Z,945.00
2018-06-27T11:51:38.212Z,945.02
2018-06-27T11:54:04.522Z,944.99
2018-06-27T11:56:30.841Z,945.00
2018-06-27T11:58:57.143Z,944.98
2018-06-27T12:01:23.432Z,944.98
2018-06-27T12:03:49.745Z,944.97
2018-06-27T12:06:16.038Z,944.98
2018-06-27T12:08:42.369Z,945.02
2018-06-27T12:11:08.665Z,944.94
2018-06-27T12:13:34.961Z,944.98
2018-06-27T12:16:01.251Z,944.90
2018-06-27T12:18:27.545Z,944.95
2018-06-27T12:20:53.881Z,944.95
2018-06-27T12:23:20.181Z,944.94
2018-06-27T12:25:46.486Z,944.93
2018-06-27T12:28:12.793Z,945.02
2018-06-27T12:30:39.413Z,944.92
2018-06-27T12:33:05.705Z,944.93
2018-06-27T12:35:32.036Z,944.88
2018-06-27T12:37:58.332Z,944.98
2018-06-27T12:40:24.655Z,944.94
2018-06-27T12:42:50.950Z,944.96
2018-06-27T12:45:17.245Z,944.92
2018-06-27T12:47:43.606Z,944.93
2018-06-27T12:50:09.950Z,944.93
2018-06-27T12:52:36.195Z,944.90
2018-06-27T12:55:02.489Z,944.94
2018-06-27T12:57:28.783Z,944.92
2018-06-27T12:59:55.093Z,944.90
2018-06-27T13:02:21.404Z,944.87
2018-06-27T13:04:47.731Z,944.90
2018-06-27T13:07:14.103Z,944.92
2018-06-27T13:09:40.405Z,944.93
2018-06-27T13:12:06.732Z,944.95
2018-06-27T13:14:33.037Z,944.97
2018-06-27T13:16:59.331Z,944.93
2018-06-27T13:19:25.636Z,944.94
2018-06-27T13:21:51.925Z,944.84
2018-06-27T13:24:18.221Z,944.85
2018-06-27T13:26:44.546Z,944.85
2018-06-27T13:29:10.881Z,944.80
2018-06-27T13:31:37.209Z,944.80
2018-06-27T13:34:03.571Z,944.76
2018-06-27T13:36:29.834Z,944.76
2018-06-27T13:38:56.163Z,944.80
2018-06-27T13:41:22.464Z,944.72
2018-06-27T13:43:48.757Z,944.75
2018-06-27T13:46:15.078Z,944.67
2018-06-27T13:48:41.370Z,944.74
2018-06-27T13:51:07.691Z,944.75
2018-06-27T13:53:33.994Z,944.69
2018-06-27T13:56:00.291Z,944.69
2018-06-27T13:58:26.586Z,944.67
2018-06-27T14:00:52.879Z,944.65
2018-06-27T14:03:19.205Z,944.65
2018-06-27T14:05:45.504Z,944.62
2018-06-27T14:08:11.815Z,944.59
2018-06-27T14:10:38.126Z,944.60
2018-06-27T14:13:04.427Z,944.54
2018-06-27T14:15:30.719Z,944.51
2018-06-27T14:17:57.026Z,944.54
2018-06-27T14:20:23.356Z,944.50
2018-06-27T14:22:49.654Z,944.43
2018-06-27T14:25:15.964Z,944.45
2018-06-27T14:27:42.286Z,944.39
2018-06-27T14:30:08.619Z,944.41
2018-06-27T14:32:35.047Z,944.44
2018-06-27T14:35:01.342Z,944.41
2018-06-27T14:37:27.691Z,944.44
2018-06-27T14:39:53.998Z,944.40
2018-06-27T14:42:20.296Z,944.36
2018-06-27T14:44:46.618Z,944.35
2018-06-27T14:47:12.910Z,944.26
2018-06-27T14:49:39.213Z,944.28
2018-06-27T14:52:05.513Z,944.24
2018-06-27T14:54:31.804Z,944.23
2018-06-27T14:56:58.102Z,944.19
2018-06-27T14:59:24.623Z,944.16
2018-06-27T15:01:50.711Z,944.12
2018-06-27T15:04:17.041Z,944.14
2018-06-27T15:06:43.355Z,944.14
2018-06-27T15:09:09.639Z,944.16
2018-06-27T15:11:35.938Z,944.11
2018-06-27T15:14:02.272Z,944.18
2018-06-27T15:16:28.566Z,944.17
2018-06-27T15:18:54.862Z,944.14
2018-06-27T15:21:21.163Z,944.14
2018-06-27T15:23:47.643Z,944.13
2018-06-27T15:26:13.928Z,944.14
2018-06-27T15:28:40.213Z,944.14
2018-06-27T15:31:06.513Z,944.16
2018-06-27T15:33:32.826Z,944.15
2018-06-27T15:35:59.207Z,944.07
2018-06-27T15:38:25.505Z,944.06
2018-06-27T15:40:51.814Z,944.08
2018-06-27T15:43:18.129Z,944.11
2018-06-27T15:45:44.425Z,944.13
2018-06-27T15:48:11.122Z,944.12
2018-06-27T15:50:37.427Z,944.06
2018-06-27T15:53:03.754Z,944.04
2018-06-27T15:55:30.070Z,944.05
2018-06-27T15:57:56.398Z,944.07
2018-06-27T16:00:22.702Z,944.08
2018-06-27T16:02:48.996Z,944.09
2018-06-27T16:05:15.338Z,944.14
2018-06-27T16:07:41.631Z,944.15
2018-06-27T16:10:07.964Z,944.17
2018-06-27T16:12:34.254Z,944.16
2018-06-27T16:15:00.581Z,944.15
2018-06-27T16:17:27.161Z,944.10
2018-06-27T16:19:53.202Z,944.12
2018-06-27T16:22:19.501Z,944.05
2018-06-27T16:24:45.797Z,944.10
2018-06-27T16:27:12.093Z,944.08
2018-06-27T16:29:38.386Z,944.13
2018-06-27T16:32:04.710Z,944.14
2018-06-27T16:34:31.009Z,944.14
2018-06-27T16:36:57.345Z,944.15
2018-06-27T16:39:23.643Z,944.17
2018-06-27T16:41:49.948Z,944.21
2018-06-27T16:44:16.287Z,944.14
2018-06-27T16:46:42.578Z,944.18
2018-06-27T16:49:08.874Z,944.15
2018-06-27T16:51:35.235Z,944.17
2018-06-27T16:54:01.514Z,944.24
2018-06-27T16:56:27.798Z,944.20
2018-06-27T16:58:54.137Z,944.22
2018-06-27T17:01:20.661Z,944.21
2018-06-27T17:03:46.801Z,944.28
2018-06-27T17:06:13.152Z,944.33
2018-06-27T17:08:39.481Z,944.33
2018-06-27T17:11:05.824Z,944.30
2018-06-27T17:13:32.118Z,944.24
2018-06-27T17:15:58.428Z,944.24
2018-06-27T17:18:24.727Z,944.24
2018-06-27T17:20:51.022Z,944.19
2018-06-27T17:23:17.356Z,944.15
2018-06-27T17:25:43.691Z,944.24
2018-06-27T17:28:10.014Z,944.24
2018-06-27T17:30:36.306Z,944.21
2018-06-27T17:33:02.631Z,944.25
2018-06-27T17:35:28.988Z,944.20
2018-06-27T17:37:55.292Z,944.21
2018-06-27T17:40:21.572Z,944.21
2018-06-27T17:42:47.956Z,944.21
2018-06-27T17:45:14.318Z,944.27
2018-06-27T17:47:40.650Z,944.31
2018-06-27T17:50:07.008Z,944.32
2018-06-27T17:52:33.302Z,944.29
2018-06-27T17:54:59.599Z,944.30
2018-06-27T17:57:25.918Z,944.24
2018-06-27T17:59:52.208Z,944.28
2018-06-27T18:02:18.550Z,944.21
2018-06-27T18:04:44.846Z,944.21
2018-06-27T18:07:11.247Z,944.20
2018-06-27T18:09:37.586Z,944.28
2018-06-27T18:12:03.922Z,944.31
2018-06-27T18:14:30.260Z,944.31
2018-06-27T18:16:56.561Z,944.33
2018-06-27T18:19:22.893Z,944.29
2018-06-27T18:21:49.193Z,944.24
2018-06-27T18:24:15.498Z,944.28
2018-06-27T18:26:41.838Z,944.21
2018-06-27T18:29:08.224Z,944.23
2018-06-27T18:31:34.493Z,944.28
2018-06-27T18:34:00.795Z,944.27
2018-06-27T18:36:27.141Z,944.22
2018-06-27T18:38:53.470Z,944.24
2018-06-27T18:41:19.863Z,944.20
2018-06-27T18:43:46.158Z,944.30
2018-06-27T18:46:12.458Z,944.28
2018-06-27T18:48:38.790Z,944.28
2018-06-27T18:51:05.126Z,944.27
2018-06-27T18:53:31.460Z,944.28
2018-06-27T18:55:57.765Z,944.30
2018-06-27T18:58:24.057Z,944.37
2018-06-27T19:00:50.356Z,944.26
2018-06-27T19:03:16.948Z,944.27
2018-06-27T19:05:43.113Z,944.32
2018-06-27T19:08:09.476Z,944.34
2018-06-27T19:10:35.760Z,944.32
2018-06-27T19:13:02.099Z,944.35
2018-06-27T19:15:28.439Z,944.40
2018-06-27T19:17:54.830Z,944.36
2018-06-27T19:20:21.106Z,944.41
2018-06-27T19:22:47.451Z,944.35
2018-06-27T19:25:13.805Z,944.35
2018-06-27T19:27:40.104Z,944.33
2018-06-27T19:30:06.397Z,944.35
2018-06-27T19:32:32.691Z,944.31
2018-06-27T19:34:58.993Z,944.31
2018-06-27T19:37:25.281Z,944.31
2018-06-27T19:39:51.617Z,944.27
2018-06-27T19:42:17.869Z,944.30
2018-06-27T19:44:44.172Z,944.28
2018-06-27T19:47:10.472Z,944.29
2018-06-27T19:49:36.797Z,944.40
2018-06-27T19:52:03.139Z,944.38
2018-06-27T19:54:29.773Z,944.32
2018-06-27T19:56:56.119Z,944.34
2018-06-27T19:59:22.419Z,944.32
2018-06-27T20:01:48.714Z,944.32
2018-06-27T20:04:15.059Z,944.35
2018-06-27T20:06:41.324Z,944.41
2018-06-27T20:09:07.632Z,944.41
2018-06-27T20:11:33.926Z,944.38
2018-06-27T20:14:00.280Z,944.42
2018-06-27T20:16:26.643Z,944.40
2018-06-27T20:18:52.897Z,944.40
2018-06-27T20:21:19.255Z,944.37
2018-06-27T20:23:45.571Z,944.32
2018-06-27T20:26:11.864Z,944.32
2018-06-27T20:28:38.465Z,944.25
2018-06-27T20:31:04.854Z,944.30
2018-06-27T20:33:31.110Z,944.25
2018-06-27T20:35:57.396Z,944.30
2018-06-27T20:38:23.750Z,944.21
2018-06-27T20:40:50.021Z,944.18
2018-06-27T20:43:16.347Z,944.25
2018-06-27T20:45:42.692Z,944.13
2018-06-27T20:48:09.019Z,944.12
2018-06-27T20:50:35.365Z,944.17
2018-06-27T20:53:01.659Z,944.09
2018-06-27T20:55:27.959Z,944.14
2018-06-27T20:57:54.244Z,944.15
2018-06-27T21:00:20.538Z,944.15
2018-06-27T21:02:46.863Z,944.08
2018-06-27T21:05:13.204Z,944.14
2018-06-27T21:07:39.493Z,944.10
2018-06-27T21:10:05.789Z,944.12
2018-06-27T21:12:32.085Z,944.17
2018-06-27T21:14:58.413Z,944.22
2018-06-27T21:17:24.708Z,944.13
2018-06-27T21:19:51.012Z,944.19
2018-06-27T21:22:17.338Z,944.10
2018-06-27T21:24:43.667Z,944.14
2018-06-27T21:27:10.001Z,944.18
2018-06-27T21:29:36.294Z,944.20
2018-06-27T21:32:02.623Z,944.17
2018-06-27T21:34:28.919Z,944.17
2018-06-27T21:36:55.233Z,944.12
2018-06-27T21:39:21.533Z,944.11
2018-06-27T21:41:47.868Z,944.11
2018-06-27T21:44:14.159Z,944.05
2018-06-27T21:46:40.457Z,944.05
2018-06-27T21:49:06.768Z,944.09
2018-06-27T21:51:33.064Z,944.02
2018-06-27T21:53:59.385Z,944.01
2018-06-27T21:56:25.677Z,944.06
2018-06-27T21:58:52.006Z,943.94
2018-06-27T22:01:18.300Z,943.90
2018-06-27T22:03:44.641Z,943.86
2018-06-27T22:06:10.884Z,943.93
2018-06-27T22:08:37.174Z,943.89
2018-06-27T22:11:03.475Z,943.83
2018-06-27T22:13:29.769Z,943.85
2018-06-27T22:15:56.079Z,943.81
2018-06-27T22:18:22.371Z,943.89
2018-06-27T22:20:49.504Z,943.78
2018-06-27T22:23:16.223Z,943.79
2018-06-27T22:25:42.474Z,943.77
2018-06-27T22:28:08.779Z,943.81
2018-06-27T22:30:35.077Z,943.79
2018-06-27T22:33:01.389Z,943.64
2018-06-27T22:35:27.681Z,943.61
2018-06-27T22:37:53.973Z,943.53
2018-06-27T22:40:20.295Z,943.51
2018-06-27T22:42:46.599Z,943.44
2018-06-27T22:45:12.886Z,943.47
2018-06-27T22:47:39.181Z,943.36
2018-06-27T22:50:05.482Z,943.32
2018-06-27T22:52:31.769Z,943.26
2018-06-27T22:54:58.065Z,943.24
2018-06-27T22:57:24.367Z,943.33
2018-06-27T22:59:50.684Z,943.28
2018-06-27T23:02:17.020Z,943.32
2018-06-27T23:04:43.321Z,943.25
2018-06-27T23:07:09.609Z,943.34
2018-06-27T23:09:35.908Z,943.33
2018-06-27T23:12:02.199Z,943.36
2018-06-27T23:14:28.512Z,943.38
2018-06-27T23:16:54.807Z,943.29
2018-06-27T23:19:21.181Z,943.36
2018-06-27T23:21:47.398Z,943.25
2018-06-27T23:24:13.694Z,943.37
2018-06-27T23:26:39.987Z,943.36
2018-06-27T23:29:06.317Z,943.38
2018-06-27T23:31:32.608Z,943.33
2018-06-27T23:33:58.902Z,943.34
2018-06-27T23:36:25.197Z,943.29
2018-06-27T23:38:51.496Z,943.34
2018-06-27T23:41:17.807Z,943.34
2018-06-27T23:43:44.089Z,943.31
2018-06-27T23:46:10.381Z,943.33
2018-06-27T23:48:36.679Z,943.32
2018-06-27T23:51:02.990Z,943.26
2018-06-27T23:53:29.286Z,943.30
2018-06-27T23:55:55.582Z,943.31
2018-06-27T23:58:21.877Z,943.32
